.
WxDataArchive / Data Records for 2008-12-17
2008-12-16 December 2008 2008-12-18

Data Records for Wednesday, 17 December 2008

Time	Temp	Chill	HIndex	Humid	Dewpt	 Wind 	HiWind	WindDir	Rain 	Barom 
-----	----	-----	------	-----	-----	------	------	-------	-----	----- 
00:00	23.2	23.2	23.2	92	21.2	2	5	112	0.00	30.012 
00:05	23.3	23.3	23.3	92	21.3	2	5	112	0.00	30.012 
00:10	23.3	23.3	23.3	92	21.3	1	3	90	0.00	30.012 
00:15	23.3	23.3	23.3	92	21.3	1	5	45	0.00	29.998 
00:20	23.3	23.3	23.3	92	21.3	1	3	112	0.00	29.998 
00:25	23.3	23.3	23.3	92	21.3	1	4	112	0.00	29.998 
00:30	23.5	23.5	23.5	92	21.5	1	5	112	0.00	29.989 
00:35	23.5	23.5	23.5	92	21.5	1	4	90	0.00	29.989 
00:40	23.5	23.5	23.5	92	21.5	0	2	90	0.00	29.989 
00:45	23.6	23.6	23.6	92	21.6	0	2	90	0.00	30.005 
00:50	23.6	23.6	23.6	92	21.6	0	2	90	0.00	30.005 
00:55	23.6	23.6	23.6	92	21.6	0	1	90	0.00	30.005 
01:00	23.6	23.6	23.6	92	21.6	0	2	90	0.00	30.010 
01:05	23.6	23.6	23.6	92	21.6	0	1	90	0.00	30.010 
01:10	23.6	23.6	23.6	92	21.6	0	1	90	0.00	30.010 
01:15	23.6	23.6	23.6	92	21.6	0	3	112	0.00	30.008 
01:20	23.8	23.8	23.8	92	21.8	0	2	112	0.00	30.008 
01:25	23.8	23.8	23.8	92	21.8	0	0	---	0.00	30.008 
01:30	23.8	23.8	23.8	92	21.8	0	0	---	0.00	29.995 
01:35	23.9	23.9	23.9	92	21.9	0	1	112	0.00	29.995 
01:40	23.9	23.9	23.9	92	21.9	0	1	112	0.00	29.995 
01:45	23.9	23.9	23.9	92	21.9	0	1	112	0.00	29.992 
01:50	23.9	23.9	23.9	92	21.9	0	0	---	0.00	29.992 
01:55	23.9	23.9	23.9	92	21.9	0	0	---	0.00	29.992 
02:00	23.9	23.9	23.9	92	21.9	0	1	112	0.00	29.991 
02:05	23.8	23.8	23.8	92	21.8	0	0	---	0.00	29.991 
02:10	23.8	23.8	23.8	92	21.8	0	0	---	0.00	29.991 
02:15	23.8	23.8	23.8	92	21.8	0	1	112	0.00	29.992 
02:20	23.9	23.9	23.9	92	21.9	0	0	---	0.00	29.992 
02:25	23.9	23.9	23.9	92	21.9	0	0	---	0.00	29.992 
02:30	23.9	23.9	23.9	92	21.9	0	0	---	0.00	29.994 
02:35	23.9	23.9	23.9	92	21.9	0	0	---	0.00	29.994 
02:40	23.9	23.9	23.9	92	21.9	0	0	---	0.00	29.994 
02:45	23.9	23.9	23.9	92	21.9	0	0	---	0.00	29.995 
02:50	23.9	23.9	23.9	92	21.9	0	0	---	0.00	29.995 
02:55	23.9	23.9	23.9	92	21.9	0	0	---	0.00	29.995 
03:00	23.9	23.9	23.9	92	21.9	0	0	---	0.00	29.993 
03:05	24.1	24.1	24.1	92	22.1	0	1	112	0.00	29.993 
03:10	24.1	24.1	24.1	92	22.1	0	2	112	0.00	29.993 
03:15	24.1	24.1	24.1	92	22.1	0	1	135	0.00	29.995 
03:20	24.1	24.1	24.1	92	22.1	0	2	180	0.00	29.995 
03:25	24.1	24.1	24.1	92	22.1	0	1	180	0.00	29.995 
03:30	24.1	24.1	24.1	92	22.1	0	1	180	0.00	29.996 
03:35	24.1	24.1	24.1	92	22.1	0	2	180	0.00	29.996 
03:40	24.1	24.1	24.1	92	22.1	0	1	180	0.00	29.996 
03:45	24.2	24.2	24.2	93	22.5	0	2	202	0.00	29.996 
03:50	24.2	24.2	24.2	93	22.5	0	3	202	0.00	29.996 
03:55	24.4	24.4	24.4	93	22.7	1	3	248	0.00	29.996 
04:00	24.4	24.4	24.4	93	22.7	1	4	248	0.00	30.001 
04:05	24.4	24.4	24.4	93	22.7	1	4	248	0.00	30.001 
04:10	24.5	24.5	24.5	93	22.8	1	4	248	0.00	30.001 
04:15	24.5	24.5	24.5	93	22.8	1	5	248	0.00	30.009 
04:20	24.7	24.7	24.7	93	23.0	2	6	248	0.00	30.009 
04:25	24.7	24.7	24.7	93	23.0	2	5	248	0.00	30.009 
04:30	24.7	24.7	24.7	92	22.7	2	6	248	0.00	30.010 
04:35	24.8	24.8	24.8	92	22.8	2	7	248	0.00	30.010 
04:40	24.8	24.8	24.8	92	22.8	3	6	270	0.00	30.010 
04:45	24.7	24.7	24.7	92	22.7	2	4	270	0.00	30.009 
04:50	24.7	24.7	24.7	92	22.7	2	4	248	0.00	30.009 
04:55	24.7	24.7	24.7	92	22.7	2	7	270	0.00	30.009 
05:00	24.7	24.7	24.7	92	22.7	2	6	270	0.00	30.023 
05:05	24.7	24.7	24.7	92	22.7	2	6	270	0.00	30.023 
05:10	24.7	24.7	24.7	92	22.7	3	6	270	0.00	30.023 
05:15	24.7	24.7	24.7	92	22.7	2	7	270	0.00	30.027 
05:20	24.7	24.7	24.7	92	22.7	2	6	248	0.00	30.027 
05:25	24.7	24.7	24.7	92	22.7	3	6	248	0.00	30.027 
05:30	24.7	24.7	24.7	91	22.5	3	6	248	0.00	30.036 
05:35	24.7	24.7	24.7	91	22.5	2	6	248	0.00	30.036 
05:40	24.7	24.7	24.7	91	22.5	2	6	248	0.00	30.036 
05:45	24.7	24.7	24.7	91	22.5	3	5	270	0.00	30.039 
05:50	24.5	24.5	24.5	91	22.3	2	5	270	0.00	30.039 
05:55	24.5	24.5	24.5	91	22.3	2	6	270	0.00	30.039 
06:00	24.5	24.5	24.5	91	22.3	3	6	270	0.00	30.050 
06:05	24.5	24.5	24.5	90	22.0	2	5	248	0.00	30.050 
06:10	24.5	24.5	24.5	90	22.0	2	4	270	0.00	30.050 
06:15	24.5	24.5	24.5	90	22.0	2	9	248	0.00	30.058 
06:20	24.4	24.4	24.4	90	21.9	2	5	270	0.00	30.058 
06:25	24.4	24.4	24.4	89	21.6	1	4	270	0.00	30.058 
06:30	24.4	24.4	24.4	89	21.6	1	3	270	0.00	30.059 
06:35	24.4	24.4	24.4	89	21.6	2	5	270	0.00	30.059 
06:40	24.4	24.4	24.4	89	21.6	2	5	248	0.00	30.059 
06:45	24.2	24.2	24.2	89	21.4	1	3	248	0.00	30.074 
06:50	24.2	24.2	24.2	89	21.4	1	3	248	0.00	30.074 
06:55	24.2	24.2	24.2	89	21.4	1	4	248	0.00	30.074 
07:00	24.2	24.2	24.2	89	21.4	0	2	248	0.00	30.081 
07:05	24.2	24.2	24.2	89	21.4	1	3	225	0.00	30.081 
07:10	24.2	24.2	24.2	89	21.4	2	4	270	0.00	30.081 
07:15	24.2	24.2	24.2	89	21.4	2	6	248	0.00	30.104 
07:20	24.1	24.1	24.1	89	21.3	2	9	270	0.00	30.104 
07:25	24.1	24.1	24.1	89	21.3	1	4	270	0.00	30.104 
07:30	23.9	23.9	23.9	89	21.1	1	4	248	0.00	30.104 
07:35	23.9	23.9	23.9	89	21.1	2	4	270	0.00	30.104 
07:40	23.9	23.9	23.9	89	21.1	2	5	270	0.00	30.104 
07:45	23.8	23.8	23.8	89	21.0	2	4	248	0.00	30.104 
07:50	23.8	23.8	23.8	89	21.0	1	4	248	0.00	30.104 
07:55	23.8	23.8	23.8	89	21.0	1	3	248	0.00	30.104 
08:00	23.6	23.6	23.6	89	20.8	2	4	248	0.00	30.119 
08:05	23.6	23.6	23.6	89	20.8	2	4	248	0.00	30.119 
08:10	23.5	23.5	23.5	89	20.7	2	4	292	0.00	30.119 
08:15	23.5	23.5	23.5	89	20.7	2	4	248	0.00	30.120 
08:20	23.5	23.5	23.5	89	20.7	1	4	315	0.00	30.120 
08:25	23.5	23.5	23.5	89	20.7	1	3	315	0.00	30.120 
08:30	23.3	23.3	23.3	88	20.3	1	3	248	0.00	30.129 
08:35	23.3	23.3	23.3	88	20.3	1	4	225	0.00	30.129 
08:40	23.3	23.3	23.3	88	20.3	1	4	248	0.00	30.129 
08:45	23.3	23.3	23.3	88	20.3	1	5	248	0.00	30.136 
08:50	23.2	23.2	23.2	88	20.2	1	3	270	0.00	30.136 
08:55	23.3	23.3	23.3	88	20.3	0	3	270	0.00	30.136 
09:00	23.3	23.3	23.3	88	20.3	1	3	270	0.00	30.147 
09:05	23.2	23.2	23.2	88	20.2	2	5	248	0.00	30.147 
09:10	23.2	23.2	23.2	88	20.2	1	3	248	0.00	30.147 
09:15	23.2	23.2	23.2	88	20.2	1	5	248	0.00	30.141 
09:20	23.2	23.2	23.2	88	20.2	2	6	248	0.00	30.141 
09:25	23.2	23.2	23.2	88	20.2	1	5	248	0.00	30.141 
09:30	23.2	23.2	23.2	87	19.9	2	5	225	0.00	30.145 
09:35	23.2	23.2	23.2	87	19.9	1	5	248	0.00	30.145 
09:40	23.2	23.2	23.2	87	19.9	1	5	225	0.00	30.145 
09:45	23.3	23.3	23.3	87	20.0	1	5	248	0.00	30.163 
09:50	23.3	23.3	23.3	87	20.0	2	6	248	0.00	30.163 
09:55	23.5	23.5	23.5	87	20.2	1	3	248	0.00	30.163 
10:00	23.5	23.5	23.5	87	20.2	1	4	248	0.00	30.153 
10:05	23.6	23.6	23.6	86	20.0	1	3	248	0.00	30.153 
10:10	23.6	23.6	23.6	86	20.0	1	2	248	0.00	30.153 
10:15	23.8	23.8	23.8	86	20.2	1	5	248	0.00	30.165 
10:20	23.9	23.9	23.9	85	20.1	2	5	248	0.00	30.165 
10:25	23.8	23.8	23.8	85	20.0	2	6	248	0.00	30.165 
10:30	23.9	23.9	23.9	85	20.1	1	3	248	0.00	30.181 
10:35	23.9	23.9	23.9	85	20.1	2	4	248	0.00	30.181 
10:40	23.8	23.8	23.8	85	20.0	1	5	248	0.00	30.181 
10:45	23.8	23.8	23.8	84	19.7	2	6	248	0.00	30.183 
10:50	23.8	23.8	23.8	84	19.7	2	4	248	0.00	30.183 
10:55	23.9	23.9	23.9	84	19.8	2	6	248	0.00	30.183 
11:00	24.1	24.1	24.1	84	20.0	2	5	248	0.00	30.198 
11:05	24.1	24.1	24.1	84	20.0	3	6	248	0.00	30.198 
11:10	24.1	24.1	24.1	83	19.7	2	7	248	0.00	30.198 
11:15	24.1	24.1	24.1	83	19.7	3	7	248	0.00	30.205 
11:20	24.1	24.1	24.1	82	19.4	2	7	248	0.00	30.205 
11:25	24.2	24.2	24.2	82	19.5	2	5	248	0.00	30.205 
11:30	24.4	24.4	24.4	81	19.4	2	5	248	0.00	30.211 
11:35	24.5	24.5	24.5	81	19.5	1	3	270	0.00	30.211 
11:40	24.5	24.5	24.5	81	19.5	2	4	270	0.00	30.211 
11:45	24.5	24.5	24.5	81	19.5	2	4	248	0.00	30.210 
11:50	24.4	24.4	24.4	81	19.4	2	5	248	0.00	30.210 
11:55	24.2	24.2	24.2	81	19.2	2	3	248	0.00	30.210 
12:00	24.1	24.1	24.1	81	19.1	2	5	248	0.00	30.214 
12:05	24.1	24.1	24.1	82	19.4	1	5	248	0.00	30.214 
12:10	24.1	24.1	24.1	83	19.7	3	9	270	0.00	30.214 
12:15	24.2	24.2	24.2	83	19.8	1	5	248	0.00	30.224 
12:20	23.9	23.9	23.9	81	18.9	3	6	270	0.00	30.224 
12:25	23.8	23.8	23.8	81	18.8	2	4	270	0.00	30.224 
12:30	23.9	23.9	23.9	80	18.6	2	6	270	0.00	30.226 
12:35	24.1	24.1	24.1	79	18.5	3	7	270	0.00	30.226 
12:40	24.1	24.1	24.1	78	18.3	2	4	270	0.00	30.226 
12:45	24.2	24.2	24.2	77	18.1	3	10	248	0.00	30.214 
12:50	24.1	24.1	24.1	77	18.0	3	7	248	0.00	30.214 
12:55	24.1	24.1	24.1	77	18.0	3	6	248	0.00	30.214 
13:00	24.1	24.1	24.1	77	18.0	1	4	248	0.00	30.209 
13:05	24.1	24.1	24.1	76	17.7	2	5	248	0.00	30.209 
13:10	24.1	24.1	24.1	77	18.0	2	4	248	0.00	30.209 
13:15	23.9	23.9	23.9	76	17.5	2	5	248	0.00	30.211 
13:20	23.9	23.9	23.9	76	17.5	2	5	248	0.00	30.211 
13:25	23.8	23.8	23.8	76	17.4	2	4	248	0.00	30.211 
13:30	23.8	23.8	23.8	76	17.4	1	4	270	0.00	30.212 
13:35	23.8	23.8	23.8	77	17.7	1	4	248	0.00	30.212 
13:40	23.8	23.8	23.8	77	17.7	1	4	248	0.00	30.212 
13:45	23.9	23.9	23.9	76	17.5	2	6	270	0.00	30.212 
13:50	23.9	23.9	23.9	76	17.5	2	5	248	0.00	30.212 
13:55	24.1	24.1	24.1	77	18.0	2	7	248	0.00	30.212 
14:00	24.2	24.2	24.2	77	18.1	2	5	248	0.00	30.214 
14:05	24.2	24.2	24.2	76	17.7	1	4	248	0.00	30.214 
14:10	24.1	24.1	24.1	76	17.7	1	4	270	0.00	30.214 
14:15	24.1	24.1	24.1	76	17.7	2	7	248	0.00	30.225 
14:20	24.1	24.1	24.1	77	18.0	1	3	248	0.00	30.225 
14:25	24.1	24.1	24.1	77	18.0	1	3	248	0.00	30.225 
14:30	23.9	23.9	23.9	77	17.8	1	5	248	0.00	30.231 
14:35	23.8	23.8	23.8	77	17.7	3	7	270	0.00	30.231 
14:40	23.5	23.5	23.5	77	17.4	2	5	248	0.00	30.231 
14:45	23.5	23.5	23.5	78	17.7	2	5	248	0.00	30.235 
14:50	23.5	23.5	23.5	78	17.7	1	4	248	0.00	30.235 
14:55	23.3	23.3	23.3	78	17.5	2	4	270	0.00	30.235 
15:00	23.2	23.2	23.2	78	17.4	1	4	225	0.00	30.242 
15:05	23.2	23.2	23.2	78	17.4	1	4	248	0.00	30.242 
15:10	23.3	23.3	23.3	78	17.5	2	6	270	0.00	30.242 
15:15	23.3	23.3	23.3	78	17.5	2	6	248	0.00	30.233 
15:20	23.3	23.3	23.3	77	17.2	2	3	248	0.00	30.233 
15:25	23.2	23.2	23.2	77	17.1	1	6	248	0.00	30.233 
15:30	23.3	23.3	23.3	77	17.2	2	6	248	0.00	30.237 
15:35	23.3	23.3	23.3	77	17.2	1	5	248	0.00	30.237 
15:40	23.3	23.3	23.3	77	17.2	1	5	248	0.00	30.237 
15:45	23.3	23.3	23.3	77	17.2	2	5	248	0.00	30.242 
15:50	23.5	23.5	23.5	77	17.4	2	6	248	0.00	30.242 
15:55	23.3	23.3	23.3	76	16.9	2	5	270	0.00	30.242 
16:00	23.2	23.2	23.2	77	17.1	1	4	248	0.00	30.247 
16:05	23.2	23.2	23.2	77	17.1	1	3	248	0.00	30.247 
16:10	23.2	23.2	23.2	77	17.1	1	4	248	0.00	30.247 
16:15	22.9	22.9	22.9	77	16.8	2	7	248	0.00	30.254 
16:20	22.7	22.7	22.7	80	17.5	3	6	248	0.00	30.254 
16:25	22.7	22.7	22.7	77	16.6	2	7	248	0.00	30.254 
16:30	22.7	22.7	22.7	77	16.6	2	5	248	0.00	30.261 
16:35	22.5	22.5	22.5	77	16.4	2	6	248	0.00	30.261 
16:40	22.5	22.5	22.5	77	16.4	1	4	248	0.00	30.261 
16:45	22.5	22.5	22.5	77	16.4	1	4	248	0.00	30.276 
16:50	22.5	22.5	22.5	77	16.4	1	4	248	0.00	30.276 
16:55	22.4	22.4	22.4	77	16.3	2	5	270	0.00	30.276 
17:00	22.4	22.4	22.4	78	16.6	2	5	248	0.00	30.281 
17:05	22.2	22.2	22.2	78	16.4	1	3	248	0.00	30.281 
17:10	22.2	22.2	22.2	78	16.4	1	3	248	0.00	30.281 
17:15	22.1	22.1	22.1	78	16.3	2	6	248	0.00	30.288 
17:20	21.9	21.9	21.9	78	16.1	2	6	248	0.00	30.288 
17:25	21.8	21.8	21.8	77	15.7	1	4	270	0.00	30.288 
17:30	21.8	21.8	21.8	78	16.0	1	3	248	0.00	30.278 
17:35	21.8	21.8	21.8	78	16.0	1	2	248	0.00	30.278 
17:40	21.6	21.6	21.6	78	15.8	1	3	248	0.00	30.278 
17:45	21.6	21.6	21.6	78	15.8	0	2	248	0.00	30.287 
17:50	21.6	21.6	21.6	79	16.1	0	1	248	0.00	30.287 
17:55	21.4	21.4	21.4	79	15.9	1	4	248	0.00	30.287 
18:00	21.4	21.4	21.4	79	15.9	1	3	248	0.00	30.292 
18:05	21.3	21.3	21.3	79	15.8	2	5	248	0.00	30.292 
18:10	21.1	21.1	21.1	79	15.6	1	3	248	0.00	30.292 
18:15	21.1	21.1	21.1	79	15.6	1	3	248	0.00	30.294 
18:20	21.1	21.1	21.1	80	15.9	1	3	225	0.00	30.294 
18:25	21.0	21.0	21.0	80	15.8	1	4	248	0.00	30.294 
18:30	21.0	21.0	21.0	80	15.8	1	4	248	0.00	30.298 
18:35	21.0	21.0	21.0	80	15.8	0	2	248	0.00	30.298 
18:40	20.8	20.8	20.8	80	15.6	1	4	248	0.00	30.298 
18:45	20.8	20.8	20.8	81	15.9	1	3	248	0.00	30.299 
18:50	20.8	20.8	20.8	81	15.9	0	3	248	0.00	30.299 
18:55	20.8	20.8	20.8	81	15.9	2	5	248	0.00	30.299 
19:00	20.8	20.8	20.8	81	15.9	1	4	248	0.00	30.296 
19:05	20.6	20.6	20.6	81	15.7	1	4	248	0.00	30.296 
19:10	20.5	20.5	20.5	81	15.6	1	4	248	0.00	30.296 
19:15	20.5	20.5	20.5	82	15.9	1	3	248	0.00	30.294 
19:20	20.5	20.5	20.5	82	15.9	1	4	248	0.00	30.294 
19:25	20.3	20.3	20.3	82	15.7	1	3	248	0.00	30.294 
19:30	20.3	20.3	20.3	82	15.7	0	2	248	0.00	30.294 
19:35	20.3	20.3	20.3	82	15.7	1	3	248	0.00	30.300 
19:40	20.5	20.5	20.5	82	15.9	1	4	248	0.00	30.303 
19:45	20.5	20.5	20.5	82	15.9	1	4	248	0.00	30.305 
19:50	20.3	20.3	20.3	82	15.7	2	5	248	0.00	30.310 
19:55	20.3	20.3	20.3	82	15.7	0	2	248	0.00	30.310 
20:00	20.3	20.3	20.3	82	15.7	1	2	248	0.00	30.305 
20:05	20.2	20.2	20.2	82	15.6	1	3	248	0.00	30.308 
20:10	20.2	20.2	20.2	82	15.6	1	6	248	0.00	30.309 
20:15	20.0	20.0	20.0	82	15.4	1	4	248	0.00	30.314 
20:20	20.0	20.0	20.0	82	15.4	1	2	248	0.00	30.313 
20:25	20.0	20.0	20.0	82	15.4	1	3	248	0.00	30.314 
20:30	19.9	19.9	19.9	82	15.3	1	3	248	0.00	30.316 
20:35	19.9	19.9	19.9	83	15.6	0	2	248	0.00	30.320 
20:40	19.7	19.7	19.7	82	15.1	1	3	315	0.00	30.321 
20:45	19.7	19.7	19.7	82	15.1	1	5	248	0.00	30.315 
20:50	19.7	19.7	19.7	83	15.4	1	5	248	0.00	30.321 
20:55	19.7	19.7	19.7	83	15.4	0	2	248	0.00	30.317 
21:00	19.7	19.7	19.7	83	15.4	1	2	248	0.00	30.315 
21:05	19.5	19.5	19.5	83	15.2	1	4	248	0.00	30.319 
21:10	19.5	19.5	19.5	83	15.2	0	3	248	0.00	30.314 
21:15	19.4	19.4	19.4	83	15.1	1	3	225	0.00	30.325 
21:20	19.4	19.4	19.4	83	15.1	1	4	270	0.00	30.327 
21:25	19.4	19.4	19.4	84	15.4	1	3	248	0.00	30.327 
21:30	19.2	19.2	19.2	84	15.2	1	3	248	0.00	30.319 
21:35	19.2	19.2	19.2	84	15.2	0	1	248	0.00	30.317 
21:40	19.1	19.1	19.1	84	15.1	0	2	248	0.00	30.314 
21:45	19.1	19.1	19.1	84	15.1	0	2	248	0.00	30.326 
21:50	19.1	19.1	19.1	84	15.1	1	3	225	0.00	30.328 
21:55	18.8	18.8	18.8	84	14.8	1	2	315	0.00	30.327 
22:00	18.6	18.6	18.6	84	14.6	0	2	248	0.00	30.323 
22:05	18.6	18.6	18.6	84	14.6	1	4	248	0.00	30.327 
22:10	18.6	18.6	18.6	84	14.6	0	1	248	0.00	30.319 
22:15	18.6	18.6	18.6	84	14.6	0	2	248	0.00	30.313 
22:20	18.6	18.6	18.6	85	14.9	0	1	248	0.00	30.311 
22:25	18.6	18.6	18.6	84	14.6	0	2	248	0.00	30.310 
22:30	18.6	18.6	18.6	85	14.9	0	1	248	0.00	30.302 
22:35	18.6	18.6	18.6	85	14.9	0	1	248	0.00	30.307 
22:40	18.6	18.6	18.6	85	14.9	0	1	248	0.00	30.300 
22:45	18.4	18.4	18.4	85	14.7	0	1	248	0.00	30.306 
22:50	18.3	18.3	18.3	85	14.6	0	1	248	0.00	30.303 
22:55	18.3	18.3	18.3	85	14.6	0	0	---	0.00	30.306 
23:00	18.1	18.1	18.1	85	14.4	0	1	248	0.00	30.307 
23:05	18.1	18.1	18.1	85	14.4	0	0	---	0.00	30.304 
23:10	18.1	18.1	18.1	85	14.4	0	0	---	0.00	30.299 
23:15	18.1	18.1	18.1	85	14.4	0	0	---	0.00	30.301 
23:20	18.1	18.1	18.1	85	14.4	0	0	---	0.00	30.305 
23:25	18.1	18.1	18.1	85	14.4	0	1	248	0.00	30.304 
23:30	18.1	18.1	18.1	85	14.4	0	0	---	0.00	30.310 
23:35	18.1	18.1	18.1	86	14.6	0	2	248	0.00	30.313 
23:40	18.1	18.1	18.1	86	14.6	0	3	248	0.00	30.316 
23:45	18.1	18.1	18.1	86	14.6	0	0	---	0.00	30.316 
23:50	18.1	18.1	18.1	86	14.6	0	1	248	0.00	30.319 
23:55	18.1	18.1	18.1	86	14.6	0	2	248	0.00	30.316 

CoCoRaHS
IN-AL-39
A2 Web Hosting
Creative Commons License
GoDaddy
search engine by freefind advanced

loaded 2018-11-17 05:33:07 • last modified 2010-11-18 10:43:29
Privacy PolicyDisclaimer
• wx.awcolley.com is powered by PmWiki v.2002016 •
• all content (unless otherwise noted) © 2018 A W Colley